sensor_id;sensor_type;location;lat;lon;timestamp;P1;durP1;ratioP1;P2;durP2;ratioP2
55290;SDS011;41155;39.768;2.712;2024-03-08T00:01:09;40.63;;;10.75;;
55290;SDS011;41155;39.768;2.712;2024-03-08T00:03:34;44.30;;;11.05;;
55290;SDS011;41155;39.768;2.712;2024-03-08T00:06:00;51.85;;;10.57;;
55290;SDS011;41155;39.768;2.712;2024-03-08T00:08:25;44.28;;;12.18;;
55290;SDS011;41155;39.768;2.712;2024-03-08T00:10:51;37.35;;;10.10;;
55290;SDS011;41155;39.768;2.712;2024-03-08T00:13:16;42.45;;;11.38;;
55290;SDS011;41155;39.768;2.712;2024-03-08T00:15:42;37.90;;;11.73;;
55290;SDS011;41155;39.768;2.712;2024-03-08T00:18:07;40.50;;;10.95;;
55290;SDS011;41155;39.768;2.712;2024-03-08T00:20:33;48.33;;;11.65;;
55290;SDS011;41155;39.768;2.712;2024-03-08T00:22:58;39.20;;;11.10;;
55290;SDS011;41155;39.768;2.712;2024-03-08T00:25:24;39.17;;;11.07;;
55290;SDS011;41155;39.768;2.712;2024-03-08T00:27:50;45.17;;;11.43;;
55290;SDS011;41155;39.768;2.712;2024-03-08T00:30:15;30.20;;;10.27;;
55290;SDS011;41155;39.768;2.712;2024-03-08T00:32:41;40.08;;;12.55;;
55290;SDS011;41155;39.768;2.712;2024-03-08T00:35:06;41.72;;;12.00;;
55290;SDS011;41155;39.768;2.712;2024-03-08T00:37:32;49.33;;;10.60;;
55290;SDS011;41155;39.768;2.712;2024-03-08T00:39:59;40.35;;;11.52;;
55290;SDS011;41155;39.768;2.712;2024-03-08T00:42:25;50.58;;;13.32;;
55290;SDS011;41155;39.768;2.712;2024-03-08T00:44:50;53.80;;;13.18;;
55290;SDS011;41155;39.768;2.712;2024-03-08T00:47:16;58.78;;;12.10;;
55290;SDS011;41155;39.768;2.712;2024-03-08T00:49:41;48.47;;;11.15;;
55290;SDS011;41155;39.768;2.712;2024-03-08T00:52:07;51.38;;;11.88;;
55290;SDS011;41155;39.768;2.712;2024-03-08T00:54:33;44.53;;;11.32;;
55290;SDS011;41155;39.768;2.712;2024-03-08T00:57:05;59.00;;;13.60;;
55290;SDS011;41155;39.768;2.712;2024-03-08T00:59:31;48.13;;;12.40;;
55290;SDS011;41155;39.768;2.712;2024-03-08T01:02:00;39.58;;;10.63;;
55290;SDS011;41155;39.768;2.712;2024-03-08T01:04:26;61.58;;;12.45;;
55290;SDS011;41155;39.768;2.712;2024-03-08T01:06:54;43.25;;;10.90;;
55290;SDS011;41155;39.768;2.712;2024-03-08T01:09:21;44.15;;;11.75;;
55290;SDS011;41155;39.768;2.712;2024-03-08T01:11:47;37.05;;;10.40;;
55290;SDS011;41155;39.768;2.712;2024-03-08T01:14:13;40.00;;;12.50;;
55290;SDS011;41155;39.768;2.712;2024-03-08T01:16:38;52.53;;;11.90;;
55290;SDS011;41155;39.768;2.712;2024-03-08T01:19:04;52.13;;;12.35;;
55290;SDS011;41155;39.768;2.712;2024-03-08T01:21:30;56.78;;;12.85;;
55290;SDS011;41155;39.768;2.712;2024-03-08T01:23:55;40.08;;;12.05;;
55290;SDS011;41155;39.768;2.712;2024-03-08T01:26:21;42.17;;;12.07;;
55290;SDS011;41155;39.768;2.712;2024-03-08T01:28:46;60.63;;;13.15;;
55290;SDS011;41155;39.768;2.712;2024-03-08T01:31:12;54.33;;;13.25;;
55290;SDS011;41155;39.768;2.712;2024-03-08T01:33:38;52.83;;;12.55;;
55290;SDS011;41155;39.768;2.712;2024-03-08T01:36:05;62.70;;;13.65;;
55290;SDS011;41155;39.768;2.712;2024-03-08T01:38:31;55.15;;;13.55;;
55290;SDS011;41155;39.768;2.712;2024-03-08T01:40:56;52.83;;;12.98;;
55290;SDS011;41155;39.768;2.712;2024-03-08T01:43:24;47.50;;;14.45;;
55290;SDS011;41155;39.768;2.712;2024-03-08T01:45:52;45.00;;;11.93;;
55290;SDS011;41155;39.768;2.712;2024-03-08T01:48:18;57.15;;;12.68;;
55290;SDS011;41155;39.768;2.712;2024-03-08T01:50:47;51.42;;;13.35;;
55290;SDS011;41155;39.768;2.712;2024-03-08T01:53:12;52.22;;;11.95;;
55290;SDS011;41155;39.768;2.712;2024-03-08T01:55:40;73.88;;;14.43;;
55290;SDS011;41155;39.768;2.712;2024-03-08T01:58:07;46.80;;;12.32;;
55290;SDS011;41155;39.768;2.712;2024-03-08T02:00:35;48.20;;;12.98;;
55290;SDS011;41155;39.768;2.712;2024-03-08T02:03:03;56.55;;;12.18;;
55290;SDS011;41155;39.768;2.712;2024-03-08T02:05:29;57.55;;;12.25;;
55290;SDS011;41155;39.768;2.712;2024-03-08T02:07:55;52.63;;;12.63;;
55290;SDS011;41155;39.768;2.712;2024-03-08T02:10:21;50.88;;;12.77;;
55290;SDS011;41155;39.768;2.712;2024-03-08T02:12:47;50.15;;;12.50;;
55290;SDS011;41155;39.768;2.712;2024-03-08T02:15:13;55.65;;;13.52;;
55290;SDS011;41155;39.768;2.712;2024-03-08T02:17:40;60.45;;;13.43;;
55290;SDS011;41155;39.768;2.712;2024-03-08T02:20:05;53.15;;;14.02;;
55290;SDS011;41155;39.768;2.712;2024-03-08T02:22:34;55.10;;;12.77;;
55290;SDS011;41155;39.768;2.712;2024-03-08T02:24:59;54.50;;;12.82;;
55290;SDS011;41155;39.768;2.712;2024-03-08T02:27:28;47.35;;;12.18;;
55290;SDS011;41155;39.768;2.712;2024-03-08T02:29:55;62.17;;;12.60;;
55290;SDS011;41155;39.768;2.712;2024-03-08T02:32:22;49.15;;;12.82;;
55290;SDS011;41155;39.768;2.712;2024-03-08T02:34:50;40.70;;;11.73;;
55290;SDS011;41155;39.768;2.712;2024-03-08T02:37:16;54.33;;;12.68;;
55290;SDS011;41155;39.768;2.712;2024-03-08T02:39:42;60.97;;;14.02;;
55290;SDS011;41155;39.768;2.712;2024-03-08T02:42:08;49.60;;;11.88;;
55290;SDS011;41155;39.768;2.712;2024-03-08T02:44:33;50.05;;;12.73;;
55290;SDS011;41155;39.768;2.712;2024-03-08T02:46:59;43.78;;;11.52;;
55290;SDS011;41155;39.768;2.712;2024-03-08T02:49:25;40.97;;;12.02;;
55290;SDS011;41155;39.768;2.712;2024-03-08T02:51:54;48.03;;;12.43;;
55290;SDS011;41155;39.768;2.712;2024-03-08T02:54:22;54.35;;;11.32;;
55290;SDS011;41155;39.768;2.712;2024-03-08T02:56:49;34.60;;;10.32;;
55290;SDS011;41155;39.768;2.712;2024-03-08T02:59:16;52.03;;;12.38;;
55290;SDS011;41155;39.768;2.712;2024-03-08T03:01:42;42.05;;;11.00;;
55290;SDS011;41155;39.768;2.712;2024-03-08T03:04:08;57.13;;;11.98;;
55290;SDS011;41155;39.768;2.712;2024-03-08T03:06:33;39.28;;;11.32;;
55290;SDS011;41155;39.768;2.712;2024-03-08T03:08:59;38.35;;;10.65;;
55290;SDS011;41155;39.768;2.712;2024-03-08T03:11:24;32.30;;;10.32;;
55290;SDS011;41155;39.768;2.712;2024-03-08T03:13:50;44.75;;;11.13;;
55290;SDS011;41155;39.768;2.712;2024-03-08T03:16:19;36.38;;;10.27;;
55290;SDS011;41155;39.768;2.712;2024-03-08T03:18:45;34.17;;;10.40;;
55290;SDS011;41155;39.768;2.712;2024-03-08T03:21:11;37.80;;;10.43;;
55290;SDS011;41155;39.768;2.712;2024-03-08T03:23:38;33.67;;;10.85;;
55290;SDS011;41155;39.768;2.712;2024-03-08T03:26:05;30.63;;;10.05;;
55290;SDS011;41155;39.768;2.712;2024-03-08T03:28:35;21.00;;;8.45;;
55290;SDS011;41155;39.768;2.712;2024-03-08T03:31:05;47.45;;;10.77;;
55290;SDS011;41155;39.768;2.712;2024-03-08T03:33:31;37.60;;;11.40;;
55290;SDS011;41155;39.768;2.712;2024-03-08T03:35:59;49.55;;;12.02;;
55290;SDS011;41155;39.768;2.712;2024-03-08T03:38:26;50.08;;;14.35;;
55290;SDS011;41155;39.768;2.712;2024-03-08T03:40:53;46.42;;;11.75;;
55290;SDS011;41155;39.768;2.712;2024-03-08T03:43:22;38.83;;;11.40;;
55290;SDS011;41155;39.768;2.712;2024-03-08T03:45:48;48.83;;;11.57;;
55290;SDS011;41155;39.768;2.712;2024-03-08T03:48:13;36.58;;;10.93;;
55290;SDS011;41155;39.768;2.712;2024-03-08T03:50:39;46.05;;;10.23;;
55290;SDS011;41155;39.768;2.712;2024-03-08T03:53:04;41.67;;;10.95;;
55290;SDS011;41155;39.768;2.712;2024-03-08T03:55:33;34.67;;;10.55;;
55290;SDS011;41155;39.768;2.712;2024-03-08T03:57:58;39.92;;;11.45;;
55290;SDS011;41155;39.768;2.712;2024-03-08T04:00:26;34.45;;;10.60;;
55290;SDS011;41155;39.768;2.712;2024-03-08T04:02:52;44.95;;;11.30;;
55290;SDS011;41155;39.768;2.712;2024-03-08T04:05:18;29.27;;;10.13;;
55290;SDS011;41155;39.768;2.712;2024-03-08T04:07:44;27.52;;;9.70;;
55290;SDS011;41155;39.768;2.712;2024-03-08T04:10:10;29.80;;;8.98;;
55290;SDS011;41155;39.768;2.712;2024-03-08T04:12:37;27.58;;;9.18;;
55290;SDS011;41155;39.768;2.712;2024-03-08T04:15:02;35.75;;;10.50;;
55290;SDS011;41155;39.768;2.712;2024-03-08T04:17:29;26.55;;;8.73;;
55290;SDS011;41155;39.768;2.712;2024-03-08T04:19:55;32.53;;;9.63;;
55290;SDS011;41155;39.768;2.712;2024-03-08T04:22:22;21.20;;;8.27;;
55290;SDS011;41155;39.768;2.712;2024-03-08T04:24:47;32.97;;;9.75;;
55290;SDS011;41155;39.768;2.712;2024-03-08T04:27:13;24.02;;;8.57;;
55290;SDS011;41155;39.768;2.712;2024-03-08T04:29:39;28.98;;;9.77;;
55290;SDS011;41155;39.768;2.712;2024-03-08T04:32:05;32.00;;;10.23;;
55290;SDS011;41155;39.768;2.712;2024-03-08T04:34:32;21.67;;;8.70;;
55290;SDS011;41155;39.768;2.712;2024-03-08T04:36:59;40.20;;;8.70;;
55290;SDS011;41155;39.768;2.712;2024-03-08T04:39:25;21.25;;;8.40;;
55290;SDS011;41155;39.768;2.712;2024-03-08T04:41:54;27.65;;;9.07;;
55290;SDS011;41155;39.768;2.712;2024-03-08T04:44:23;18.60;;;8.60;;
55290;SDS011;41155;39.768;2.712;2024-03-08T04:46:49;14.38;;;8.18;;
55290;SDS011;41155;39.768;2.712;2024-03-08T04:49:15;25.45;;;8.68;;
55290;SDS011;41155;39.768;2.712;2024-03-08T04:51:40;16.80;;;8.38;;
55290;SDS011;41155;39.768;2.712;2024-03-08T04:54:06;21.15;;;8.63;;
55290;SDS011;41155;39.768;2.712;2024-03-08T04:56:31;17.33;;;8.10;;
55290;SDS011;41155;39.768;2.712;2024-03-08T04:58:58;12.95;;;7.20;;
55290;SDS011;41155;39.768;2.712;2024-03-08T05:01:24;18.33;;;8.27;;
55290;SDS011;41155;39.768;2.712;2024-03-08T05:03:49;14.50;;;6.82;;
55290;SDS011;41155;39.768;2.712;2024-03-08T05:06:16;13.65;;;7.70;;
55290;SDS011;41155;39.768;2.712;2024-03-08T05:08:42;12.60;;;7.03;;
55290;SDS011;41155;39.768;2.712;2024-03-08T05:11:07;13.63;;;7.28;;
55290;SDS011;41155;39.768;2.712;2024-03-08T05:13:33;11.07;;;6.70;;
55290;SDS011;41155;39.768;2.712;2024-03-08T05:15:59;15.93;;;7.50;;
55290;SDS011;41155;39.768;2.712;2024-03-08T05:18:25;13.73;;;7.85;;
55290;SDS011;41155;39.768;2.712;2024-03-08T05:20:53;17.23;;;7.95;;
55290;SDS011;41155;39.768;2.712;2024-03-08T05:23:18;13.48;;;7.15;;
55290;SDS011;41155;39.768;2.712;2024-03-08T05:25:44;18.10;;;7.57;;
55290;SDS011;41155;39.768;2.712;2024-03-08T05:28:12;14.70;;;7.50;;
55290;SDS011;41155;39.768;2.712;2024-03-08T05:30:38;15.63;;;7.78;;
55290;SDS011;41155;39.768;2.712;2024-03-08T05:33:04;17.90;;;8.00;;
55290;SDS011;41155;39.768;2.712;2024-03-08T05:35:30;16.00;;;7.90;;
55290;SDS011;41155;39.768;2.712;2024-03-08T05:37:57;16.00;;;7.88;;
55290;SDS011;41155;39.768;2.712;2024-03-08T05:40:23;18.73;;;7.32;;
55290;SDS011;41155;39.768;2.712;2024-03-08T05:42:49;16.42;;;7.30;;
55290;SDS011;41155;39.768;2.712;2024-03-08T05:45:14;13.40;;;7.07;;
55290;SDS011;41155;39.768;2.712;2024-03-08T05:47:40;17.92;;;6.80;;
55290;SDS011;41155;39.768;2.712;2024-03-08T05:50:06;10.90;;;6.70;;
55290;SDS011;41155;39.768;2.712;2024-03-08T05:52:35;12.27;;;7.07;;
55290;SDS011;41155;39.768;2.712;2024-03-08T05:55:01;13.70;;;6.68;;
55290;SDS011;41155;39.768;2.712;2024-03-08T05:57:28;13.77;;;6.63;;
55290;SDS011;41155;39.768;2.712;2024-03-08T05:59:53;12.85;;;6.78;;
55290;SDS011;41155;39.768;2.712;2024-03-08T06:02:19;18.45;;;7.28;;
55290;SDS011;41155;39.768;2.712;2024-03-08T06:04:47;11.65;;;6.82;;
55290;SDS011;41155;39.768;2.712;2024-03-08T06:07:13;15.70;;;6.72;;
55290;SDS011;41155;39.768;2.712;2024-03-08T06:09:38;14.95;;;6.55;;
55290;SDS011;41155;39.768;2.712;2024-03-08T06:12:04;19.88;;;8.88;;
55290;SDS011;41155;39.768;2.712;2024-03-08T06:14:31;22.10;;;8.30;;
55290;SDS011;41155;39.768;2.712;2024-03-08T06:16:57;21.08;;;8.02;;
55290;SDS011;41155;39.768;2.712;2024-03-08T06:19:23;26.00;;;8.40;;
55290;SDS011;41155;39.768;2.712;2024-03-08T06:21:48;14.50;;;7.72;;
55290;SDS011;41155;39.768;2.712;2024-03-08T06:24:14;18.92;;;7.20;;
55290;SDS011;41155;39.768;2.712;2024-03-08T06:26:40;17.15;;;8.27;;
55290;SDS011;41155;39.768;2.712;2024-03-08T06:29:06;14.98;;;7.05;;
55290;SDS011;41155;39.768;2.712;2024-03-08T06:31:34;18.42;;;7.57;;
55290;SDS011;41155;39.768;2.712;2024-03-08T06:34:03;17.50;;;7.43;;
55290;SDS011;41155;39.768;2.712;2024-03-08T06:36:32;23.20;;;8.13;;
55290;SDS011;41155;39.768;2.712;2024-03-08T06:38:59;22.60;;;13.27;;
55290;SDS011;41155;39.768;2.712;2024-03-08T06:41:24;31.05;;;12.82;;
55290;SDS011;41155;39.768;2.712;2024-03-08T06:43:50;24.95;;;9.85;;
55290;SDS011;41155;39.768;2.712;2024-03-08T06:46:17;30.65;;;14.35;;
55290;SDS011;41155;39.768;2.712;2024-03-08T06:48:43;40.67;;;18.88;;
55290;SDS011;41155;39.768;2.712;2024-03-08T06:51:10;38.65;;;15.57;;
55290;SDS011;41155;39.768;2.712;2024-03-08T06:53:36;36.70;;;12.48;;
55290;SDS011;41155;39.768;2.712;2024-03-08T06:56:02;37.15;;;11.18;;
55290;SDS011;41155;39.768;2.712;2024-03-08T06:58:28;45.88;;;11.35;;
55290;SDS011;41155;39.768;2.712;2024-03-08T07:00:53;33.83;;;10.38;;
55290;SDS011;41155;39.768;2.712;2024-03-08T07:03:23;53.25;;;11.00;;
55290;SDS011;41155;39.768;2.712;2024-03-08T07:05:49;32.25;;;9.50;;
55290;SDS011;41155;39.768;2.712;2024-03-08T07:08:14;45.53;;;20.08;;
55290;SDS011;41155;39.768;2.712;2024-03-08T07:10:40;34.20;;;12.50;;
55290;SDS011;41155;39.768;2.712;2024-03-08T07:13:10;32.85;;;11.25;;
55290;SDS011;41155;39.768;2.712;2024-03-08T07:15:36;31.48;;;11.60;;
55290;SDS011;41155;39.768;2.712;2024-03-08T07:18:01;31.60;;;10.60;;
55290;SDS011;41155;39.768;2.712;2024-03-08T07:20:27;38.17;;;12.70;;
55290;SDS011;41155;39.768;2.712;2024-03-08T07:22:53;32.75;;;11.90;;
55290;SDS011;41155;39.768;2.712;2024-03-08T07:25:19;27.92;;;10.63;;
55290;SDS011;41155;39.768;2.712;2024-03-08T07:27:46;29.20;;;10.88;;
55290;SDS011;41155;39.768;2.712;2024-03-08T07:30:16;34.42;;;12.40;;
55290;SDS011;41155;39.768;2.712;2024-03-08T07:33:01;34.20;;;11.60;;
55290;SDS011;41155;39.768;2.712;2024-03-08T07:35:29;13.68;;;6.82;;
55290;SDS011;41155;39.768;2.712;2024-03-08T07:37:56;5.40;;;4.90;;
55290;SDS011;41155;39.768;2.712;2024-03-08T07:40:21;6.45;;;5.15;;
55290;SDS011;41155;39.768;2.712;2024-03-08T07:42:48;6.35;;;4.90;;
55290;SDS011;41155;39.768;2.712;2024-03-08T07:45:14;5.82;;;5.35;;
55290;SDS011;41155;39.768;2.712;2024-03-08T07:47:41;7.15;;;5.80;;
55290;SDS011;41155;39.768;2.712;2024-03-08T07:50:07;6.55;;;5.95;;
55290;SDS011;41155;39.768;2.712;2024-03-08T07:52:35;6.80;;;6.20;;
55290;SDS011;41155;39.768;2.712;2024-03-08T07:55:01;6.25;;;5.55;;
55290;SDS011;41155;39.768;2.712;2024-03-08T07:57:28;7.22;;;6.47;;
55290;SDS011;41155;39.768;2.712;2024-03-08T07:59:55;6.55;;;5.88;;
55290;SDS011;41155;39.768;2.712;2024-03-08T08:02:20;6.45;;;5.85;;
55290;SDS011;41155;39.768;2.712;2024-03-08T08:04:46;5.53;;;5.25;;
55290;SDS011;41155;39.768;2.712;2024-03-08T08:07:11;6.95;;;6.00;;
55290;SDS011;41155;39.768;2.712;2024-03-08T08:09:37;8.25;;;5.78;;
55290;SDS011;41155;39.768;2.712;2024-03-08T08:12:03;10.60;;;6.00;;
55290;SDS011;41155;39.768;2.712;2024-03-08T08:14:29;6.43;;;5.85;;
55290;SDS011;41155;39.768;2.712;2024-03-08T08:16:57;10.23;;;6.07;;
55290;SDS011;41155;39.768;2.712;2024-03-08T08:19:25;24.35;;;7.15;;
55290;SDS011;41155;39.768;2.712;2024-03-08T08:21:52;14.70;;;7.45;;
55290;SDS011;41155;39.768;2.712;2024-03-08T08:24:17;12.65;;;6.97;;
55290;SDS011;41155;39.768;2.712;2024-03-08T08:26:45;10.88;;;7.88;;
55290;SDS011;41155;39.768;2.712;2024-03-08T08:29:11;21.25;;;7.88;;
55290;SDS011;41155;39.768;2.712;2024-03-08T08:31:36;12.88;;;7.88;;
55290;SDS011;41155;39.768;2.712;2024-03-08T08:34:02;13.23;;;6.90;;
55290;SDS011;41155;39.768;2.712;2024-03-08T08:36:28;15.73;;;7.18;;
55290;SDS011;41155;39.768;2.712;2024-03-08T08:38:55;9.00;;;6.40;;
55290;SDS011;41155;39.768;2.712;2024-03-08T08:41:22;10.18;;;6.55;;
55290;SDS011;41155;39.768;2.712;2024-03-08T08:43:48;16.40;;;6.95;;
55290;SDS011;41155;39.768;2.712;2024-03-08T08:46:17;12.18;;;6.47;;
55290;SDS011;41155;39.768;2.712;2024-03-08T08:48:43;11.82;;;6.78;;
55290;SDS011;41155;39.768;2.712;2024-03-08T08:51:10;10.40;;;6.75;;
55290;SDS011;41155;39.768;2.712;2024-03-08T08:53:42;11.68;;;7.10;;
55290;SDS011;41155;39.768;2.712;2024-03-08T08:56:11;9.48;;;6.40;;
55290;SDS011;41155;39.768;2.712;2024-03-08T08:58:41;12.30;;;6.63;;
55290;SDS011;41155;39.768;2.712;2024-03-08T09:01:09;14.73;;;7.78;;
55290;SDS011;41155;39.768;2.712;2024-03-08T09:03:35;8.40;;;6.20;;
55290;SDS011;41155;39.768;2.712;2024-03-08T09:06:02;10.10;;;5.30;;
55290;SDS011;41155;39.768;2.712;2024-03-08T09:08:29;10.55;;;5.53;;
55290;SDS011;41155;39.768;2.712;2024-03-08T09:10:54;10.38;;;5.57;;
55290;SDS011;41155;39.768;2.712;2024-03-08T09:13:20;9.00;;;5.95;;
55290;SDS011;41155;39.768;2.712;2024-03-08T09:15:45;12.10;;;5.70;;
55290;SDS011;41155;39.768;2.712;2024-03-08T09:18:11;12.30;;;5.03;;
55290;SDS011;41155;39.768;2.712;2024-03-08T09:20:36;9.98;;;4.88;;
55290;SDS011;41155;39.768;2.712;2024-03-08T09:23:02;8.98;;;5.32;;
55290;SDS011;41155;39.768;2.712;2024-03-08T09:25:29;10.18;;;6.38;;
55290;SDS011;41155;39.768;2.712;2024-03-08T09:27:54;8.60;;;4.95;;
55290;SDS011;41155;39.768;2.712;2024-03-08T09:30:20;8.27;;;5.00;;
55290;SDS011;41155;39.768;2.712;2024-03-08T09:32:46;12.70;;;5.20;;
55290;SDS011;41155;39.768;2.712;2024-03-08T09:35:12;10.25;;;5.60;;
55290;SDS011;41155;39.768;2.712;2024-03-08T09:37:38;10.20;;;4.97;;
55290;SDS011;41155;39.768;2.712;2024-03-08T09:40:03;6.80;;;4.72;;
55290;SDS011;41155;39.768;2.712;2024-03-08T09:42:34;9.27;;;4.47;;
55290;SDS011;41155;39.768;2.712;2024-03-08T09:45:05;6.10;;;4.32;;
55290;SDS011;41155;39.768;2.712;2024-03-08T09:47:35;7.45;;;4.97;;
55290;SDS011;41155;39.768;2.712;2024-03-08T09:50:05;6.78;;;4.97;;
55290;SDS011;41155;39.768;2.712;2024-03-08T09:52:45;14.65;;;4.97;;
55290;SDS011;41155;39.768;2.712;2024-03-08T09:55:12;10.00;;;5.32;;
55290;SDS011;41155;39.768;2.712;2024-03-08T09:57:38;9.40;;;5.45;;
55290;SDS011;41155;39.768;2.712;2024-03-08T10:00:05;13.65;;;4.95;;
55290;SDS011;41155;39.768;2.712;2024-03-08T10:02:46;10.73;;;5.00;;
55290;SDS011;41155;39.768;2.712;2024-03-08T10:05:12;9.10;;;5.00;;
55290;SDS011;41155;39.768;2.712;2024-03-08T10:07:39;7.40;;;4.20;;
55290;SDS011;41155;39.768;2.712;2024-03-08T10:10:04;12.48;;;4.20;;
55290;SDS011;41155;39.768;2.712;2024-03-08T10:12:30;12.88;;;4.25;;
55290;SDS011;41155;39.768;2.712;2024-03-08T10:14:58;11.07;;;4.03;;
55290;SDS011;41155;39.768;2.712;2024-03-08T10:17:23;13.85;;;4.13;;
55290;SDS011;41155;39.768;2.712;2024-03-08T10:19:50;5.82;;;3.42;;
55290;SDS011;41155;39.768;2.712;2024-03-08T10:22:19;6.40;;;3.65;;
55290;SDS011;41155;39.768;2.712;2024-03-08T10:24:47;8.48;;;4.13;;
55290;SDS011;41155;39.768;2.712;2024-03-08T10:27:13;8.13;;;4.22;;
55290;SDS011;41155;39.768;2.712;2024-03-08T10:29:42;5.82;;;3.95;;
55290;SDS011;41155;39.768;2.712;2024-03-08T10:32:09;3.80;;;3.50;;
55290;SDS011;41155;39.768;2.712;2024-03-08T10:34:35;6.82;;;4.03;;
55290;SDS011;41155;39.768;2.712;2024-03-08T10:37:02;6.13;;;4.13;;
55290;SDS011;41155;39.768;2.712;2024-03-08T10:39:30;11.23;;;4.57;;
55290;SDS011;41155;39.768;2.712;2024-03-08T10:42:02;14.95;;;3.55;;
55290;SDS011;41155;39.768;2.712;2024-03-08T10:47:00;7.00;;;3.55;;
55290;SDS011;41155;39.768;2.712;2024-03-08T10:49:57;5.63;;;3.70;;
55290;SDS011;41155;39.768;2.712;2024-03-08T10:52:34;4.20;;;3.30;;
55290;SDS011;41155;39.768;2.712;2024-03-08T10:55:01;4.22;;;3.80;;
55290;SDS011;41155;39.768;2.712;2024-03-08T10:57:27;4.03;;;3.50;;
55290;SDS011;41155;39.768;2.712;2024-03-08T10:59:52;3.65;;;3.35;;
55290;SDS011;41155;39.768;2.712;2024-03-08T11:02:19;5.22;;;3.47;;
55290;SDS011;41155;39.768;2.712;2024-03-08T11:04:48;3.00;;;2.80;;
55290;SDS011;41155;39.768;2.712;2024-03-08T11:07:15;3.67;;;2.85;;
55290;SDS011;41155;39.768;2.712;2024-03-08T11:09:45;11.48;;;4.68;;
55290;SDS011;41155;39.768;2.712;2024-03-08T11:15:16;5.53;;;5.03;;
55290;SDS011;41155;39.768;2.712;2024-03-08T11:17:49;8.40;;;3.85;;
55290;SDS011;41155;39.768;2.712;2024-03-08T11:20:23;3.20;;;3.00;;
55290;SDS011;41155;39.768;2.712;2024-03-08T11:22:53;5.88;;;3.88;;
55290;SDS011;41155;39.768;2.712;2024-03-08T11:25:33;10.00;;;3.80;;
55290;SDS011;41155;39.768;2.712;2024-03-08T11:28:06;12.15;;;4.40;;
55290;SDS011;41155;39.768;2.712;2024-03-08T11:30:35;10.45;;;4.43;;
55290;SDS011;41155;39.768;2.712;2024-03-08T11:33:03;6.45;;;3.67;;
55290;SDS011;41155;39.768;2.712;2024-03-08T11:35:29;3.45;;;3.20;;
55290;SDS011;41155;39.768;2.712;2024-03-08T11:37:54;5.00;;;3.95;;
55290;SDS011;41155;39.768;2.712;2024-03-08T11:40:25;3.90;;;3.45;;
55290;SDS011;41155;39.768;2.712;2024-03-08T11:42:51;6.10;;;4.22;;
55290;SDS011;41155;39.768;2.712;2024-03-08T11:45:17;5.00;;;3.33;;
55290;SDS011;41155;39.768;2.712;2024-03-08T11:47:46;6.45;;;3.63;;
55290;SDS011;41155;39.768;2.712;2024-03-08T11:50:12;4.55;;;3.78;;
55290;SDS011;41155;39.768;2.712;2024-03-08T11:52:38;8.23;;;3.88;;
55290;SDS011;41155;39.768;2.712;2024-03-08T11:55:04;8.05;;;4.03;;
55290;SDS011;41155;39.768;2.712;2024-03-08T11:57:31;12.55;;;4.05;;
55290;SDS011;41155;39.768;2.712;2024-03-08T11:59:57;6.00;;;4.32;;
55290;SDS011;41155;39.768;2.712;2024-03-08T12:02:24;8.00;;;4.10;;
55290;SDS011;41155;39.768;2.712;2024-03-08T12:04:56;8.50;;;3.42;;
55290;SDS011;41155;39.768;2.712;2024-03-08T12:07:22;4.85;;;3.80;;
55290;SDS011;41155;39.768;2.712;2024-03-08T12:12:45;7.57;;;4.20;;
55290;SDS011;41155;39.768;2.712;2024-03-08T12:15:12;7.22;;;4.03;;
55290;SDS011;41155;39.768;2.712;2024-03-08T12:17:40;6.35;;;3.60;;
55290;SDS011;41155;39.768;2.712;2024-03-08T12:20:11;6.70;;;3.70;;
55290;SDS011;41155;39.768;2.712;2024-03-08T12:22:41;3.92;;;3.63;;
55290;SDS011;41155;39.768;2.712;2024-03-08T12:25:13;6.30;;;4.38;;
55290;SDS011;41155;39.768;2.712;2024-03-08T12:27:40;5.43;;;4.20;;
55290;SDS011;41155;39.768;2.712;2024-03-08T12:30:44;4.75;;;3.75;;
55290;SDS011;41155;39.768;2.712;2024-03-08T12:33:00;3.88;;;3.58;;
55290;SDS011;41155;39.768;2.712;2024-03-08T12:35:26;8.60;;;4.32;;
55290;SDS011;41155;39.768;2.712;2024-03-08T12:37:54;11.63;;;4.30;;
55290;SDS011;41155;39.768;2.712;2024-03-08T12:40:31;4.47;;;3.95;;
55290;SDS011;41155;39.768;2.712;2024-03-08T12:42:57;9.32;;;4.18;;
55290;SDS011;41155;39.768;2.712;2024-03-08T12:45:24;5.43;;;3.60;;
55290;SDS011;41155;39.768;2.712;2024-03-08T12:47:50;10.65;;;3.60;;
55290;SDS011;41155;39.768;2.712;2024-03-08T12:50:17;5.47;;;4.43;;
55290;SDS011;41155;39.768;2.712;2024-03-08T12:52:42;4.38;;;3.97;;
55290;SDS011;41155;39.768;2.712;2024-03-08T12:55:08;4.40;;;3.42;;
55290;SDS011;41155;39.768;2.712;2024-03-08T12:57:34;7.78;;;7.03;;
55290;SDS011;41155;39.768;2.712;2024-03-08T13:00:05;5.70;;;3.55;;
55290;SDS011;41155;39.768;2.712;2024-03-08T13:02:37;3.78;;;3.42;;
55290;SDS011;41155;39.768;2.712;2024-03-08T13:05:04;12.05;;;3.88;;
55290;SDS011;41155;39.768;2.712;2024-03-08T13:07:30;9.85;;;3.65;;
55290;SDS011;41155;39.768;2.712;2024-03-08T13:09:56;14.50;;;4.15;;
55290;SDS011;41155;39.768;2.712;2024-03-08T13:12:24;5.00;;;3.35;;
55290;SDS011;41155;39.768;2.712;2024-03-08T13:14:50;11.32;;;3.60;;
55290;SDS011;41155;39.768;2.712;2024-03-08T13:17:16;9.60;;;4.93;;
55290;SDS011;41155;39.768;2.712;2024-03-08T13:19:43;5.45;;;3.40;;
55290;SDS011;41155;39.768;2.712;2024-03-08T13:22:09;5.68;;;4.47;;
55290;SDS011;41155;39.768;2.712;2024-03-08T13:24:41;4.97;;;3.70;;
55290;SDS011;41155;39.768;2.712;2024-03-08T13:27:10;6.28;;;3.35;;
55290;SDS011;41155;39.768;2.712;2024-03-08T13:29:45;11.40;;;3.47;;
55290;SDS011;41155;39.768;2.712;2024-03-08T13:32:16;9.60;;;3.40;;
55290;SDS011;41155;39.768;2.712;2024-03-08T13:34:45;11.93;;;3.10;;
55290;SDS011;41155;39.768;2.712;2024-03-08T13:37:10;5.15;;;3.35;;
55290;SDS011;41155;39.768;2.712;2024-03-08T13:39:39;4.68;;;3.35;;
55290;SDS011;41155;39.768;2.712;2024-03-08T13:44:47;9.40;;;4.78;;
55290;SDS011;41155;39.768;2.712;2024-03-08T13:47:22;6.10;;;4.25;;
55290;SDS011;41155;39.768;2.712;2024-03-08T13:49:52;6.15;;;3.65;;
55290;SDS011;41155;39.768;2.712;2024-03-08T13:52:18;7.32;;;4.28;;
55290;SDS011;41155;39.768;2.712;2024-03-08T13:54:44;7.35;;;3.95;;
55290;SDS011;41155;39.768;2.712;2024-03-08T13:57:10;6.95;;;3.80;;
55290;SDS011;41155;39.768;2.712;2024-03-08T13:59:36;5.80;;;3.85;;
55290;SDS011;41155;39.768;2.712;2024-03-08T14:02:03;5.10;;;4.05;;
55290;SDS011;41155;39.768;2.712;2024-03-08T14:04:29;8.55;;;6.43;;
55290;SDS011;41155;39.768;2.712;2024-03-08T14:06:55;10.00;;;7.60;;
55290;SDS011;41155;39.768;2.712;2024-03-08T14:09:28;3.80;;;3.38;;
55290;SDS011;41155;39.768;2.712;2024-03-08T14:11:54;8.00;;;4.53;;
55290;SDS011;41155;39.768;2.712;2024-03-08T14:14:20;3.95;;;3.00;;
55290;SDS011;41155;39.768;2.712;2024-03-08T14:16:49;6.00;;;3.05;;
55290;SDS011;41155;39.768;2.712;2024-03-08T14:19:19;6.55;;;2.17;;
55290;SDS011;41155;39.768;2.712;2024-03-08T14:21:45;7.78;;;3.28;;
55290;SDS011;41155;39.768;2.712;2024-03-08T14:24:13;3.88;;;2.65;;
55290;SDS011;41155;39.768;2.712;2024-03-08T14:26:42;7.47;;;2.80;;
55290;SDS011;41155;39.768;2.712;2024-03-08T14:29:08;4.53;;;2.47;;
55290;SDS011;41155;39.768;2.712;2024-03-08T14:31:35;4.25;;;2.38;;
55290;SDS011;41155;39.768;2.712;2024-03-08T14:34:01;8.50;;;4.00;;
55290;SDS011;41155;39.768;2.712;2024-03-08T14:36:28;5.25;;;2.40;;
55290;SDS011;41155;39.768;2.712;2024-03-08T14:38:54;4.88;;;3.00;;
55290;SDS011;41155;39.768;2.712;2024-03-08T14:41:20;8.13;;;5.15;;
55290;SDS011;41155;39.768;2.712;2024-03-08T14:43:47;22.55;;;11.32;;